createdAt,value
2018-04-08T00:02:01.086Z,14.57
2018-04-08T00:04:28.915Z,15.90
2018-04-08T00:06:57.490Z,15.50
2018-04-08T00:09:25.231Z,15.43
2018-04-08T00:11:52.911Z,17.23
2018-04-08T00:14:20.651Z,14.93
2018-04-08T00:16:49.190Z,15.63
2018-04-08T00:19:16.948Z,16.20
2018-04-08T00:21:44.698Z,15.60
2018-04-08T00:24:12.613Z,13.20
2018-04-08T00:26:40.370Z,15.97
2018-04-08T00:29:08.153Z,13.80
2018-04-08T00:31:35.872Z,13.70
2018-04-08T00:34:03.558Z,14.40
2018-04-08T00:36:31.308Z,15.13
2018-04-08T00:38:59.074Z,14.03
2018-04-08T00:41:26.760Z,16.13
2018-04-08T00:43:54.655Z,15.30
2018-04-08T00:46:22.737Z,13.53
2018-04-08T00:48:50.556Z,13.57
2018-04-08T00:51:18.288Z,13.17
2018-04-08T00:53:46.561Z,13.73
2018-04-08T00:56:14.338Z,13.97
2018-04-08T00:58:42.085Z,14.57
2018-04-08T01:01:09.822Z,14.82
2018-04-08T01:03:37.550Z,12.93
2018-04-08T01:06:05.234Z,12.87
2018-04-08T01:08:33.194Z,11.37
2018-04-08T01:11:00.975Z,12.20
2018-04-08T01:13:28.680Z,11.37
2018-04-08T01:15:56.422Z,12.03
2018-04-08T01:18:24.251Z,11.20
2018-04-08T01:20:51.951Z,11.53
2018-04-08T01:23:20.559Z,11.20
2018-04-08T01:25:48.251Z,10.77
2018-04-08T01:28:16.878Z,10.90
2018-04-08T01:30:45.522Z,11.40
2018-04-08T01:33:13.265Z,11.00
2018-04-08T01:35:41.132Z,10.37
2018-04-08T01:38:08.883Z,11.40
2018-04-08T01:40:36.626Z,10.87
2018-04-08T01:43:04.360Z,10.60
2018-04-08T01:45:33.096Z,11.07
2018-04-08T01:48:00.845Z,10.97
2018-04-08T01:50:28.628Z,10.83
2018-04-08T01:52:56.381Z,11.00
2018-04-08T01:55:24.159Z,10.60
2018-04-08T01:57:52.021Z,10.80
2018-04-08T02:00:20.087Z,11.80
2018-04-08T02:02:48.663Z,11.20
2018-04-08T02:05:16.378Z,11.00
2018-04-08T02:07:44.117Z,11.33
2018-04-08T02:10:11.852Z,10.33
2018-04-08T02:12:39.614Z,11.13
2018-04-08T02:15:07.342Z,10.33
2018-04-08T02:17:35.187Z,10.17
2018-04-08T02:20:02.933Z,10.90
2018-04-08T02:22:30.719Z,10.30
2018-04-08T02:24:58.422Z,10.67
2018-04-08T02:27:26.918Z,11.37
2018-04-08T02:29:54.619Z,11.03
2018-04-08T02:32:22.456Z,11.60
2018-04-08T02:34:50.234Z,10.90
2018-04-08T02:37:18.083Z,11.43
2018-04-08T02:39:45.818Z,11.10
2018-04-08T02:42:13.575Z,11.20
2018-04-08T02:44:41.694Z,11.43
2018-04-08T02:47:09.549Z,11.37
2018-04-08T02:49:37.298Z,11.10
2018-04-08T02:52:05.058Z,11.63
2018-04-08T02:54:33.087Z,11.77
2018-04-08T02:57:01.086Z,12.10
2018-04-08T02:59:28.839Z,10.93
2018-04-08T03:01:56.584Z,11.33
2018-04-08T03:04:24.334Z,10.90
2018-04-08T03:06:52.058Z,10.77
2018-04-08T03:09:19.826Z,11.10
2018-04-08T03:11:47.662Z,11.83
2018-04-08T03:14:15.469Z,11.00
2018-04-08T03:16:43.965Z,11.80
2018-04-08T03:19:11.720Z,11.50
2018-04-08T03:21:39.998Z,12.20
2018-04-08T03:24:07.780Z,11.03
2018-04-08T03:26:36.440Z,11.40
2018-04-08T03:29:04.193Z,11.37
2018-04-08T03:31:31.974Z,11.50
2018-04-08T03:34:00.747Z,11.43
2018-04-08T03:36:28.596Z,11.83
2018-04-08T03:38:56.551Z,12.70
2018-04-08T03:41:24.304Z,14.07
2018-04-08T03:43:53.095Z,13.13
2018-04-08T03:46:21.403Z,13.33
2018-04-08T03:48:49.131Z,13.20
2018-04-08T03:51:16.831Z,13.10
2018-04-08T03:53:44.640Z,13.27
2018-04-08T03:56:12.533Z,14.23
2018-04-08T03:58:40.408Z,14.23
2018-04-08T04:01:08.716Z,13.60
2018-04-08T04:03:37.385Z,14.57
2018-04-08T04:06:05.170Z,14.43
2018-04-08T04:08:32.936Z,14.40
2018-04-08T04:11:01.158Z,15.00
2018-04-08T04:13:29.970Z,14.23
2018-04-08T04:15:58.928Z,14.93
2018-04-08T04:18:38.445Z,15.20
2018-04-08T04:21:19.013Z,15.67
2018-04-08T04:23:59.154Z,14.67
2018-04-08T04:26:31.906Z,13.80
2018-04-08T04:28:59.664Z,14.00
2018-04-08T04:31:27.599Z,14.70
2018-04-08T04:33:55.601Z,14.47
2018-04-08T04:36:24.177Z,13.00
2018-04-08T04:38:51.934Z,14.37
2018-04-08T04:41:20.411Z,13.90
2018-04-08T04:43:49.135Z,13.70
2018-04-08T04:46:16.874Z,13.93
2018-04-08T04:48:45.707Z,13.23
2018-04-08T04:51:14.377Z,13.50
2018-04-08T04:53:42.319Z,14.60
2018-04-08T04:56:10.476Z,15.43
2018-04-08T04:58:39.037Z,14.87
2018-04-08T05:01:07.853Z,14.83
2018-04-08T05:03:35.718Z,14.93
2018-04-08T05:06:03.517Z,14.87
2018-04-08T05:08:32.144Z,14.83
2018-04-08T05:11:00.667Z,15.53
2018-04-08T05:13:28.753Z,16.13
2018-04-08T05:15:56.612Z,16.40
2018-04-08T05:18:24.519Z,15.53
2018-04-08T05:20:53.081Z,16.90
2018-04-08T05:23:22.546Z,18.20
2018-04-08T05:25:50.378Z,18.57
2018-04-08T05:28:18.933Z,16.73
2018-04-08T05:30:46.698Z,17.37
2018-04-08T05:33:14.940Z,16.17
2018-04-08T05:35:43.078Z,15.67
2018-04-08T05:38:10.850Z,15.23
2018-04-08T05:40:38.695Z,14.73
2018-04-08T05:43:06.455Z,14.30
2018-04-08T05:45:35.066Z,15.70
2018-04-08T05:48:02.855Z,14.17
2018-04-08T05:50:30.662Z,13.30
2018-04-08T05:52:58.437Z,13.60
2018-04-08T05:55:26.646Z,13.40
2018-04-08T05:57:54.926Z,15.57
2018-04-08T06:00:24.905Z,18.80
2018-04-08T06:02:53.176Z,20.77
2018-04-08T06:05:21.414Z,21.90
2018-04-08T06:07:49.171Z,24.00
2018-04-08T06:10:16.828Z,24.63
2018-04-08T06:12:44.510Z,25.33
2018-04-08T06:15:12.254Z,28.87
2018-04-08T06:17:40.779Z,29.17
2018-04-08T06:20:08.510Z,30.20
2018-04-08T06:22:36.711Z,30.37
2018-04-08T06:25:04.547Z,28.07
2018-04-08T06:27:32.391Z,25.33
2018-04-08T06:30:00.137Z,24.77
2018-04-08T06:32:28.791Z,23.13
2018-04-08T06:34:57.017Z,23.70
2018-04-08T06:37:25.746Z,24.43
2018-04-08T06:39:54.628Z,19.77
2018-04-08T06:42:22.416Z,20.60
2018-04-08T06:44:50.243Z,20.60
2018-04-08T06:47:18.098Z,17.73
2018-04-08T06:49:46.089Z,15.90
2018-04-08T06:52:13.868Z,13.90
2018-04-08T06:54:41.667Z,11.50
2018-04-08T06:57:09.395Z,11.47
2018-04-08T06:59:40.486Z,11.73
2018-04-08T07:02:08.266Z,10.40
2018-04-08T07:04:36.124Z,11.73
2018-04-08T07:07:03.896Z,11.13
2018-04-08T07:09:31.639Z,10.70
2018-04-08T07:11:59.528Z,9.93
2018-04-08T07:14:27.349Z,10.33
2018-04-08T07:16:55.092Z,10.83
2018-04-08T07:19:22.839Z,10.77
2018-04-08T07:21:50.554Z,9.50
2018-04-08T07:24:19.227Z,9.60
2018-04-08T07:26:46.962Z,9.77
2018-04-08T07:29:14.630Z,9.67
2018-04-08T07:31:42.388Z,9.60
2018-04-08T07:34:10.129Z,10.27
2018-04-08T07:36:37.896Z,10.17
2018-04-08T07:39:05.833Z,10.43
2018-04-08T07:41:33.542Z,9.47
2018-04-08T07:44:01.282Z,9.67
2018-04-08T07:46:29.012Z,9.93
2018-04-08T07:48:56.802Z,9.90
2018-04-08T07:51:24.472Z,9.90
2018-04-08T07:53:52.318Z,10.03
2018-04-08T07:56:20.078Z,9.80
2018-04-08T07:58:47.860Z,9.83
2018-04-08T08:01:15.832Z,10.47
2018-04-08T08:03:43.619Z,9.63
2018-04-08T08:06:11.301Z,9.87
2018-04-08T08:08:38.971Z,9.60
2018-04-08T08:11:07.660Z,9.17
2018-04-08T08:13:35.628Z,9.43
2018-04-08T08:16:03.396Z,9.57
2018-04-08T08:18:31.166Z,9.43
2018-04-08T08:20:58.847Z,8.90
2018-04-08T08:23:27.449Z,8.63
2018-04-08T08:25:55.180Z,8.87
2018-04-08T08:28:22.975Z,8.23
2018-04-08T08:30:52.012Z,7.67
2018-04-08T08:33:21.032Z,7.83
2018-04-08T08:35:48.745Z,7.23
2018-04-08T08:38:16.542Z,6.83
2018-04-08T08:40:44.285Z,5.97
2018-04-08T08:43:11.944Z,5.37
2018-04-08T08:45:39.657Z,5.93
2018-04-08T08:48:07.363Z,5.47
2018-04-08T08:50:35.057Z,5.10
2018-04-08T08:53:02.775Z,5.83
2018-04-08T08:55:30.513Z,7.27
2018-04-08T08:57:58.257Z,5.60
2018-04-08T09:00:25.955Z,6.23
2018-04-08T09:02:53.681Z,6.00
2018-04-08T09:05:21.519Z,5.27
2018-04-08T09:07:49.285Z,5.90
2018-04-08T09:10:17.080Z,5.60
2018-04-08T09:12:44.810Z,5.70
2018-04-08T09:15:12.552Z,5.53
2018-04-08T09:17:40.322Z,5.27
2018-04-08T09:20:12.377Z,5.30
2018-04-08T09:22:42.896Z,5.00
2018-04-08T09:25:23.273Z,5.10
2018-04-08T09:27:51.084Z,5.17
2018-04-08T09:30:18.740Z,4.70
2018-04-08T09:32:46.532Z,4.53
2018-04-08T09:35:14.294Z,4.97
2018-04-08T09:37:42.119Z,5.73
2018-04-08T09:40:10.606Z,5.20
2018-04-08T09:42:39.333Z,5.20
2018-04-08T09:45:07.062Z,5.60
2018-04-08T09:47:34.824Z,5.20
2018-04-08T09:50:02.528Z,4.57
2018-04-08T09:52:30.313Z,5.20
2018-04-08T09:54:58.036Z,5.20
2018-04-08T09:57:26.233Z,5.17
2018-04-08T09:59:53.963Z,5.03
2018-04-08T10:02:27.147Z,4.97
2018-04-08T10:04:54.814Z,4.30
2018-04-08T10:07:44.300Z,4.60
2018-04-08T10:10:11.965Z,4.43
2018-04-08T10:12:39.803Z,12.00
2018-04-08T10:21:12.632Z,5.90
2018-04-08T10:43:29.714Z,3.90
2018-04-08T10:45:57.519Z,4.13
2018-04-08T10:48:25.261Z,4.13
2018-04-08T10:50:53.139Z,3.60
2018-04-08T10:53:20.900Z,4.07
2018-04-08T10:55:48.682Z,3.70
2018-04-08T10:58:16.459Z,3.93
2018-04-08T11:00:44.252Z,3.60
2018-04-08T11:03:12.032Z,3.97
2018-04-08T11:05:39.766Z,4.10
2018-04-08T11:08:07.642Z,3.90
2018-04-08T11:10:35.364Z,4.00
2018-04-08T11:13:03.234Z,4.03
2018-04-08T11:15:31.000Z,4.20
2018-04-08T11:17:58.753Z,3.97
2018-04-08T11:20:26.547Z,4.17
2018-04-08T11:22:54.571Z,4.30
2018-04-08T11:25:29.890Z,4.27
2018-04-08T11:27:57.702Z,3.80
2018-04-08T11:30:25.422Z,4.00
2018-04-08T11:32:53.178Z,3.87
2018-04-08T11:35:20.912Z,3.67
2018-04-08T11:37:48.765Z,3.70
2018-04-08T11:40:16.540Z,3.90
2018-04-08T11:42:44.304Z,3.83
2018-04-08T11:45:12.025Z,4.47
2018-04-08T11:47:39.801Z,4.07
2018-04-08T11:50:07.659Z,4.00
2018-04-08T11:52:35.411Z,3.97
2018-04-08T11:55:03.181Z,3.87
2018-04-08T11:57:30.930Z,4.40
2018-04-08T11:59:58.691Z,3.90
2018-04-08T12:02:26.608Z,4.47
2018-04-08T12:04:54.412Z,4.07
2018-04-08T12:07:22.808Z,4.03
2018-04-08T12:09:50.822Z,3.80
2018-04-08T12:12:18.608Z,4.00
2018-04-08T12:14:46.349Z,4.20
2018-04-08T12:17:14.193Z,4.20
2018-04-08T12:19:41.971Z,3.93
2018-04-08T12:22:09.833Z,4.10
2018-04-08T12:24:37.815Z,4.00
2018-04-08T12:27:08.098Z,4.00
2018-04-08T12:29:36.056Z,3.87
2018-04-08T12:32:04.062Z,4.10
2018-04-08T12:34:31.998Z,3.97
2018-04-08T12:36:59.948Z,4.10
2018-04-08T12:39:28.629Z,4.00
2018-04-08T12:41:56.500Z,3.77
2018-04-08T12:44:24.404Z,4.15
2018-04-08T12:46:52.336Z,3.80
2018-04-08T12:49:21.644Z,4.05
2018-04-08T12:54:32.171Z,3.75
2018-04-08T12:57:04.391Z,3.35
2018-04-08T14:40:43.471Z,3.97
2018-04-08T14:46:17.741Z,4.37
2018-04-08T14:48:52.796Z,4.12
2018-04-08T14:51:22.915Z,3.87
2018-04-08T14:53:50.968Z,3.90
2018-04-08T14:56:19.146Z,4.00
2018-04-08T14:58:48.636Z,4.30
2018-04-08T15:01:19.166Z,4.20
2018-04-08T15:03:48.168Z,3.70
2018-04-08T15:06:16.293Z,4.28
2018-04-08T15:08:45.954Z,4.10
2018-04-08T15:11:14.400Z,4.00
2018-04-08T15:13:43.722Z,3.92
2018-04-08T15:16:11.956Z,3.90
2018-04-08T15:18:40.141Z,4.07
2018-04-08T15:21:08.830Z,4.18
2018-04-08T15:23:39.371Z,4.25
2018-04-08T15:26:07.458Z,4.30
2018-04-08T15:28:35.310Z,4.37
2018-04-08T15:31:03.381Z,4.78
2018-04-08T15:33:31.446Z,4.87
2018-04-08T15:35:59.345Z,4.90
2018-04-08T15:38:27.448Z,5.18
2018-04-08T15:40:55.476Z,4.90
2018-04-08T15:43:23.643Z,5.20
2018-04-08T15:45:51.699Z,5.45
2018-04-08T15:48:19.654Z,5.32
2018-04-08T15:50:47.611Z,5.45
2018-04-08T15:53:15.543Z,5.47
2018-04-08T15:55:43.458Z,6.07
2018-04-08T15:58:12.332Z,5.63
2018-04-08T16:00:40.499Z,6.03
2018-04-08T16:03:10.144Z,6.13
2018-04-08T16:05:38.821Z,6.30
2018-04-08T16:08:07.516Z,5.70
2018-04-08T16:10:35.497Z,5.67
2018-04-08T16:13:03.663Z,6.20
2018-04-08T16:15:31.666Z,5.80
2018-04-08T16:27:19.298Z,6.60
2018-04-08T16:29:47.202Z,6.60
2018-04-08T16:32:15.164Z,6.60
2018-04-08T16:34:43.230Z,6.50
2018-04-08T16:37:11.307Z,6.43
2018-04-08T16:39:39.360Z,7.27
2018-04-08T16:42:07.245Z,6.73
2018-04-08T16:44:35.203Z,7.07
2018-04-08T16:47:03.163Z,7.67
2018-04-08T16:49:31.040Z,7.23
2018-04-08T16:51:58.875Z,7.13
2018-04-08T16:54:26.863Z,7.53
2018-04-08T16:56:54.824Z,7.30
2018-04-08T16:59:22.792Z,7.30
2018-04-08T17:01:50.790Z,7.73
2018-04-08T17:04:18.830Z,8.10
2018-04-08T17:06:46.686Z,8.27
2018-04-08T17:09:14.662Z,7.87
2018-04-08T17:11:42.522Z,7.30
2018-04-08T17:14:10.604Z,7.63
2018-04-08T17:16:39.753Z,7.47
2018-04-08T17:19:07.749Z,7.03
2018-04-08T17:21:35.690Z,7.73
2018-04-08T17:24:03.687Z,7.83
2018-04-08T17:26:32.604Z,8.07
2018-04-08T17:29:00.623Z,7.80
2018-04-08T17:31:28.463Z,7.07
2018-04-08T17:33:59.441Z,8.03
2018-04-08T17:36:27.788Z,7.53
2018-04-08T17:38:57.548Z,7.97
2018-04-08T17:41:29.534Z,7.63
2018-04-08T17:43:57.348Z,8.40
2018-04-08T17:46:25.169Z,7.97
2018-04-08T17:48:52.928Z,8.20
2018-04-08T17:51:24.928Z,8.43
2018-04-08T17:53:52.700Z,8.10
2018-04-08T17:56:21.389Z,7.67
2018-04-08T17:58:49.388Z,7.97
2018-04-08T18:01:19.919Z,7.80
2018-04-08T18:03:47.891Z,8.03
2018-04-08T18:06:19.076Z,8.10
2018-04-08T18:08:46.847Z,7.93
2018-04-08T18:11:15.676Z,8.10
2018-04-08T18:13:43.431Z,7.20
2018-04-08T18:16:11.366Z,8.13
2018-04-08T18:18:39.122Z,8.00
2018-04-08T18:21:07.651Z,8.37
2018-04-08T18:23:35.369Z,8.33
2018-04-08T18:26:03.140Z,11.90
2018-04-08T18:28:30.927Z,8.60
2018-04-08T18:30:59.891Z,8.57
2018-04-08T18:33:27.635Z,8.53
2018-04-08T18:35:56.333Z,8.30
2018-04-08T18:38:30.886Z,8.30
2018-04-08T18:40:58.832Z,8.03
2018-04-08T18:43:26.761Z,8.00
2018-04-08T18:45:54.786Z,8.10
2018-04-08T18:48:23.296Z,8.77
2018-04-08T18:50:51.036Z,8.63
2018-04-08T18:53:19.602Z,9.03
2018-04-08T18:55:47.341Z,8.80
2018-04-08T18:58:15.016Z,9.10
2018-04-08T19:00:42.752Z,8.67
2018-04-08T19:03:11.116Z,8.63
2018-04-08T19:05:39.609Z,8.13
2018-04-08T19:08:07.377Z,9.13
2018-04-08T19:10:35.199Z,8.80
2018-04-08T19:13:03.007Z,8.27
2018-04-08T19:15:33.210Z,8.00
2018-04-08T19:18:04.951Z,8.17
2018-04-08T19:20:33.755Z,9.17
2018-04-08T19:23:02.362Z,8.60
2018-04-08T19:25:30.860Z,8.40
2018-04-08T19:28:00.016Z,8.70
2018-04-08T19:30:27.856Z,8.17
2018-04-08T19:32:55.528Z,8.07
2018-04-08T19:35:23.316Z,8.40
2018-04-08T19:37:52.048Z,6.83
2018-04-08T19:40:19.889Z,7.80
2018-04-08T19:42:48.571Z,7.20
2018-04-08T19:45:16.334Z,7.17
2018-04-08T19:47:44.049Z,7.53
2018-04-08T19:50:12.638Z,7.30
2018-04-08T19:52:40.414Z,7.13
2018-04-08T19:55:09.402Z,7.57
2018-04-08T19:57:37.176Z,7.30
2018-04-08T20:00:05.901Z,7.33
2018-04-08T20:02:33.605Z,7.77
2018-04-08T20:05:01.930Z,7.27
2018-04-08T20:07:29.696Z,6.93
2018-04-08T20:09:57.615Z,6.90
2018-04-08T20:12:25.284Z,6.87
2018-04-08T20:14:53.014Z,7.47
2018-04-08T20:17:20.736Z,7.20
2018-04-08T20:19:48.485Z,8.00
2018-04-08T20:22:16.225Z,6.70
2018-04-08T20:24:43.908Z,6.97
2018-04-08T20:27:11.693Z,6.90
2018-04-08T20:29:39.377Z,5.93
2018-04-08T20:32:07.110Z,6.13
2018-04-08T20:34:34.829Z,6.30
2018-04-08T20:37:02.660Z,5.57
2018-04-08T20:39:30.396Z,5.63
2018-04-08T20:41:58.121Z,5.43
2018-04-08T20:44:25.792Z,5.17
2018-04-08T20:46:54.197Z,5.13
2018-04-08T20:49:21.914Z,4.50
2018-04-08T20:51:49.596Z,5.20
2018-04-08T21:01:02.544Z,5.03
2018-04-08T21:03:30.257Z,5.10
2018-04-08T21:05:57.955Z,5.10
2018-04-08T21:08:25.692Z,5.23
2018-04-08T21:10:53.419Z,4.93
2018-04-08T21:13:21.176Z,5.23
2018-04-08T21:15:48.859Z,5.30
2018-04-08T21:18:16.635Z,4.77
2018-04-08T21:20:45.013Z,5.17
2018-04-08T21:23:12.728Z,5.17
2018-04-08T21:25:40.515Z,5.90
2018-04-08T21:28:08.295Z,6.33
2018-04-08T21:30:36.037Z,6.13
2018-04-08T21:33:03.760Z,6.33
2018-04-08T21:35:31.573Z,6.37
2018-04-08T21:37:59.319Z,6.60
2018-04-08T21:40:26.984Z,6.50
2018-04-08T21:42:58.182Z,6.67
2018-04-08T21:45:26.056Z,6.90
2018-04-08T21:47:53.753Z,7.13
2018-04-08T21:50:21.474Z,6.30
2018-04-08T21:52:49.251Z,7.23
2018-04-08T21:55:16.984Z,6.87
2018-04-08T21:57:45.434Z,6.60
2018-04-08T22:00:13.242Z,7.20
2018-04-08T22:02:40.993Z,8.40
2018-04-08T22:05:08.701Z,6.90
2018-04-08T22:07:36.409Z,6.70
2018-04-08T22:10:04.197Z,6.90
2018-04-08T22:12:31.926Z,6.63
2018-04-08T22:14:59.739Z,6.83
2018-04-08T22:17:27.523Z,6.70
2018-04-08T22:19:55.212Z,6.80
2018-04-08T22:22:22.939Z,6.33
2018-04-08T22:24:50.611Z,6.47
2018-04-08T22:27:18.345Z,5.93
2018-04-08T22:29:46.112Z,6.47
2018-04-08T22:32:13.863Z,6.00
2018-04-08T22:34:41.992Z,6.40
2018-04-08T22:37:09.673Z,6.10
2018-04-08T22:39:37.389Z,5.90
2018-04-08T22:42:05.110Z,5.73
2018-04-08T22:44:32.901Z,5.97
2018-04-08T22:47:00.643Z,5.73
2018-04-08T22:49:28.340Z,5.80
2018-04-08T22:51:56.065Z,5.73
2018-04-08T22:54:23.844Z,6.00
2018-04-08T22:56:51.543Z,6.07
2018-04-08T22:59:19.259Z,5.93
2018-04-08T23:01:46.937Z,6.53
2018-04-08T23:04:14.689Z,6.20
2018-04-08T23:06:42.441Z,5.53
2018-04-08T23:09:10.206Z,6.00
2018-04-08T23:11:38.102Z,5.60
2018-04-08T23:14:05.862Z,6.03
2018-04-08T23:16:33.606Z,5.80
2018-04-08T23:19:01.349Z,6.60
2018-04-08T23:21:29.222Z,6.17
2018-04-08T23:23:57.017Z,6.53
2018-04-08T23:26:24.757Z,6.50
2018-04-08T23:28:52.472Z,6.40
2018-04-08T23:31:20.175Z,6.60
2018-04-08T23:33:47.898Z,6.50
2018-04-08T23:36:15.743Z,6.70
2018-04-08T23:38:43.593Z,6.93
2018-04-08T23:41:11.296Z,6.97
2018-04-08T23:43:39.042Z,6.17
2018-04-08T23:46:06.953Z,7.00
2018-04-08T23:48:34.701Z,7.00
2018-04-08T23:51:02.410Z,7.40
2018-04-08T23:53:30.104Z,7.40
2018-04-08T23:55:57.952Z,7.73
2018-04-08T23:58:25.776Z,7.87
